createdAt,value
2018-03-20T00:02:36.445Z,12.90
2018-03-20T00:05:12.091Z,25.08
2018-03-20T00:07:51.235Z,11.90
2018-03-20T00:10:28.650Z,12.40
2018-03-20T00:13:07.480Z,12.68
2018-03-20T00:15:45.951Z,12.68
2018-03-20T00:18:22.033Z,15.70
2018-03-20T00:20:59.908Z,13.48
2018-03-20T00:23:35.952Z,10.20
2018-03-20T00:26:12.180Z,11.10
2018-03-20T00:28:50.315Z,15.43
2018-03-20T00:31:26.992Z,11.45
2018-03-20T00:34:05.333Z,14.87
2018-03-20T00:36:40.374Z,12.77
2018-03-20T00:39:16.958Z,11.27
2018-03-20T00:41:54.893Z,12.35
2018-03-20T00:44:35.367Z,12.30
2018-03-20T00:47:10.931Z,17.98
2018-03-20T00:49:45.964Z,12.82
2018-03-20T00:52:22.692Z,11.95
2018-03-20T00:54:59.098Z,14.90
2018-03-20T00:57:35.938Z,16.40
2018-03-20T01:00:11.936Z,11.93
2018-03-20T01:02:48.312Z,13.88
2018-03-20T01:05:24.859Z,14.27
2018-03-20T01:08:00.687Z,18.33
2018-03-20T01:10:37.608Z,18.62
2018-03-20T01:13:14.030Z,12.70
2018-03-20T01:15:50.658Z,10.57
2018-03-20T01:18:26.947Z,11.15
2018-03-20T01:21:03.289Z,14.65
2018-03-20T01:23:42.864Z,13.65
2018-03-20T01:26:19.941Z,12.25
2018-03-20T01:28:57.353Z,15.35
2018-03-20T01:31:35.303Z,16.40
2018-03-20T01:34:10.415Z,13.95
2018-03-20T01:36:45.549Z,11.63
2018-03-20T01:39:20.982Z,17.50
2018-03-20T01:41:58.200Z,12.10
2018-03-20T01:44:33.249Z,12.73
2018-03-20T01:47:08.344Z,11.65
2018-03-20T01:49:43.201Z,15.45
2018-03-20T01:52:25.680Z,11.77
2018-03-20T01:55:01.187Z,16.85
2018-03-20T01:57:43.389Z,13.25
2018-03-20T02:00:21.167Z,14.32
2018-03-20T02:02:57.195Z,11.68
2018-03-20T02:05:34.355Z,16.23
2018-03-20T02:08:12.451Z,11.75
2018-03-20T02:10:49.116Z,13.48
2018-03-20T02:13:26.503Z,22.85
2018-03-20T02:16:04.720Z,12.15
2018-03-20T02:18:45.067Z,12.65
2018-03-20T02:21:21.837Z,12.45
2018-03-20T02:23:58.104Z,15.75
2018-03-20T02:26:35.081Z,14.95
2018-03-20T02:29:10.330Z,11.00
2018-03-20T02:31:47.631Z,13.45
2018-03-20T02:34:22.990Z,14.27
2018-03-20T02:37:00.629Z,12.98
2018-03-20T02:39:36.713Z,13.95
2018-03-20T02:42:13.062Z,17.50
2018-03-20T02:44:50.407Z,16.33
2018-03-20T02:47:26.862Z,15.10
2018-03-20T02:50:06.894Z,15.30
2018-03-20T02:52:45.486Z,31.58
2018-03-20T02:55:22.264Z,14.35
2018-03-20T02:57:58.684Z,16.30
2018-03-20T03:00:34.012Z,12.50
2018-03-20T03:03:04.182Z,13.95
2018-03-20T03:05:40.765Z,17.17
2018-03-20T03:08:18.456Z,13.25
2018-03-20T03:10:55.145Z,15.23
2018-03-20T03:13:34.186Z,15.88
2018-03-20T03:16:10.724Z,16.25
2018-03-20T03:18:48.444Z,13.05
2018-03-20T03:21:26.133Z,14.73
2018-03-20T03:24:08.403Z,21.73
2018-03-20T03:26:44.601Z,16.27
2018-03-20T03:29:20.680Z,13.90
2018-03-20T03:32:00.049Z,12.73
2018-03-20T03:34:36.826Z,13.40
2018-03-20T03:37:13.338Z,13.40
2018-03-20T03:39:51.794Z,13.20
2018-03-20T03:42:30.176Z,18.02
2018-03-20T03:45:06.060Z,16.87
2018-03-20T03:47:42.985Z,17.87
2018-03-20T03:50:19.530Z,15.77
2018-03-20T03:52:57.739Z,22.15
2018-03-20T03:55:34.696Z,13.40
2018-03-20T03:58:11.975Z,18.25
2018-03-20T04:00:49.613Z,14.10
2018-03-20T04:03:27.554Z,19.23
2018-03-20T04:06:04.442Z,14.00
2018-03-20T04:08:46.798Z,22.42
2018-03-20T04:11:23.605Z,15.48
2018-03-20T04:14:01.095Z,15.27
2018-03-20T04:16:38.655Z,15.38
2018-03-20T04:19:16.572Z,14.77
2018-03-20T04:21:53.928Z,16.50
2018-03-20T04:24:28.856Z,16.33
2018-03-20T04:27:05.390Z,21.05
2018-03-20T04:29:40.887Z,18.50
2018-03-20T04:32:16.265Z,17.40
2018-03-20T04:34:52.261Z,15.88
2018-03-20T04:37:29.084Z,18.35
2018-03-20T04:40:10.822Z,15.80
2018-03-20T04:42:47.803Z,17.62
2018-03-20T04:45:23.440Z,21.08
2018-03-20T04:48:00.218Z,18.52
2018-03-20T04:50:37.168Z,18.02
2018-03-20T04:53:13.162Z,17.17
2018-03-20T04:55:48.928Z,16.45
2018-03-20T04:58:25.036Z,16.83
2018-03-20T05:01:02.466Z,16.42
2018-03-20T05:03:44.774Z,14.77
2018-03-20T05:06:14.490Z,17.75
2018-03-20T05:08:50.171Z,30.00
2018-03-20T05:11:26.270Z,13.95
2018-03-20T05:14:08.526Z,15.80
2018-03-20T05:16:43.734Z,18.58
2018-03-20T05:19:36.924Z,16.37
2018-03-20T05:22:12.387Z,20.73
2018-03-20T05:27:43.458Z,17.50
2018-03-20T05:30:13.750Z,22.42
2018-03-20T05:32:49.330Z,20.02
2018-03-20T05:35:25.146Z,16.83
2018-03-20T05:38:01.889Z,19.40
2018-03-20T05:40:37.607Z,23.15
2018-03-20T05:43:14.145Z,18.80
2018-03-20T05:45:50.808Z,30.25
2018-03-20T05:48:47.056Z,21.40
2018-03-20T05:51:23.386Z,22.92
2018-03-20T05:56:54.584Z,25.50
2018-03-20T05:59:30.234Z,22.70
2018-03-20T06:02:05.789Z,30.73
2018-03-20T06:04:41.558Z,24.80
2018-03-20T06:07:17.760Z,25.45
2018-03-20T06:09:53.439Z,21.60
2018-03-20T06:12:29.572Z,23.27
2018-03-20T06:15:06.790Z,24.48
2018-03-20T06:17:44.776Z,28.52
2018-03-20T06:20:20.523Z,23.73
2018-03-20T06:22:56.261Z,26.67
2018-03-20T06:25:35.111Z,25.55
2018-03-20T06:28:10.530Z,28.33
2018-03-20T06:30:48.042Z,27.87
2018-03-20T06:33:26.821Z,34.65
2018-03-20T06:36:02.511Z,26.30
2018-03-20T06:38:39.298Z,26.80
2018-03-20T06:41:17.684Z,35.35
2018-03-20T06:43:54.790Z,31.20
2018-03-20T06:46:36.625Z,28.67
2018-03-20T06:49:15.941Z,23.17
2018-03-20T06:51:52.364Z,31.55
2018-03-20T06:54:30.313Z,25.92
2018-03-20T06:57:08.660Z,32.28
2018-03-20T06:59:45.241Z,27.05
2018-03-20T07:02:27.209Z,32.47
2018-03-20T07:05:03.062Z,33.53
2018-03-20T07:07:38.603Z,38.28
2018-03-20T07:10:17.390Z,29.70
2018-03-20T07:12:54.289Z,29.70
2018-03-20T07:15:33.774Z,42.67
2018-03-20T07:18:12.740Z,36.20
2018-03-20T07:20:50.126Z,35.92
2018-03-20T07:23:26.531Z,32.47
2018-03-20T07:26:05.688Z,35.85
2018-03-20T07:28:42.871Z,36.85
2018-03-20T07:31:19.568Z,40.17
2018-03-20T07:34:01.325Z,34.42
2018-03-20T07:36:38.029Z,41.37
2018-03-20T07:39:16.363Z,28.30
2018-03-20T07:41:55.000Z,32.08
2018-03-20T07:44:31.784Z,33.90
2018-03-20T07:47:09.457Z,34.38
2018-03-20T07:49:48.211Z,32.60
2018-03-20T07:52:29.866Z,25.70
2018-03-20T07:55:06.644Z,26.05
2018-03-20T07:57:43.337Z,26.95
2018-03-20T08:00:20.696Z,29.77
2018-03-20T08:02:57.072Z,29.92
2018-03-20T08:05:32.744Z,24.17
2018-03-20T08:08:09.909Z,28.30
2018-03-20T08:10:49.223Z,24.42
2018-03-20T08:13:26.511Z,24.58
2018-03-20T08:16:04.127Z,20.85
2018-03-20T08:18:40.104Z,23.90
2018-03-20T08:21:17.044Z,24.55
2018-03-20T08:23:54.574Z,23.45
2018-03-20T08:26:32.959Z,23.90
2018-03-20T08:29:08.589Z,20.42
2018-03-20T08:31:44.811Z,28.33
2018-03-20T08:34:21.095Z,21.83
2018-03-20T08:36:59.470Z,28.42
2018-03-20T08:39:38.092Z,12.23
2018-03-20T08:42:18.520Z,15.20
2018-03-20T08:44:57.426Z,22.08
2018-03-20T08:47:39.492Z,19.15
2018-03-20T08:50:15.030Z,19.20
2018-03-20T08:52:52.400Z,13.77
2018-03-20T08:55:29.958Z,23.58
2018-03-20T08:58:11.965Z,24.12
2018-03-20T09:00:48.905Z,21.98
2018-03-20T09:03:25.680Z,18.20
2018-03-20T09:06:03.928Z,10.60
2018-03-20T09:08:43.025Z,14.10
2018-03-20T09:11:21.134Z,19.65
2018-03-20T09:13:58.963Z,16.48
2018-03-20T09:16:36.537Z,24.75
2018-03-20T09:19:14.124Z,19.02
2018-03-20T09:21:53.130Z,18.30
2018-03-20T09:24:30.009Z,12.70
2018-03-20T09:27:05.805Z,15.43
2018-03-20T09:29:45.273Z,13.35
2018-03-20T09:32:23.368Z,12.77
2018-03-20T09:35:02.148Z,14.73
2018-03-20T09:37:40.945Z,13.43
2018-03-20T09:40:18.176Z,15.13
2018-03-20T09:42:55.966Z,15.30
2018-03-20T09:45:35.148Z,14.77
2018-03-20T09:48:12.292Z,12.50
2018-03-20T09:50:51.790Z,10.98
2018-03-20T09:53:25.355Z,12.37
2018-03-20T09:56:02.516Z,12.93
2018-03-20T09:58:41.748Z,8.63
2018-03-20T10:01:23.424Z,10.55
2018-03-20T10:04:00.258Z,12.63
2018-03-20T10:06:38.018Z,15.82
2018-03-20T10:09:19.660Z,13.40
2018-03-20T10:11:55.373Z,7.90
2018-03-20T10:14:31.549Z,11.18
2018-03-20T10:17:09.816Z,11.43
2018-03-20T10:19:46.355Z,10.90
2018-03-20T10:22:23.010Z,10.43
2018-03-20T10:24:59.477Z,8.93
2018-03-20T10:27:39.238Z,9.57
2018-03-20T10:30:18.278Z,12.20
2018-03-20T10:32:55.656Z,7.72
2018-03-20T10:35:36.378Z,6.05
2018-03-20T10:38:13.388Z,9.18
2018-03-20T10:40:54.167Z,13.68
2018-03-20T10:43:32.024Z,9.68
2018-03-20T10:46:10.448Z,6.45
2018-03-20T10:48:47.619Z,8.20
2018-03-20T10:51:24.900Z,4.12
2018-03-20T10:54:02.010Z,8.57
2018-03-20T10:56:39.191Z,5.70
2018-03-20T10:59:16.546Z,7.27
2018-03-20T11:02:03.704Z,6.50
2018-03-20T11:04:40.896Z,7.35
2018-03-20T11:07:21.218Z,13.93
2018-03-20T11:10:01.007Z,4.13
2018-03-20T11:12:38.670Z,5.03
2018-03-20T11:15:15.083Z,4.10
2018-03-20T11:17:53.060Z,3.20
2018-03-20T11:20:34.973Z,4.28
2018-03-20T11:23:13.393Z,5.40
2018-03-20T11:25:54.075Z,3.53
2018-03-20T11:28:31.232Z,3.83
2018-03-20T11:31:08.292Z,7.50
2018-03-20T11:33:43.890Z,3.77
2018-03-20T11:36:20.570Z,4.70
2018-03-20T11:38:58.615Z,3.10
2018-03-20T11:41:38.509Z,4.97
2018-03-20T11:44:17.802Z,6.40
2018-03-20T11:46:55.353Z,3.23
2018-03-20T11:49:32.266Z,4.57
2018-03-20T11:52:15.845Z,4.20
2018-03-20T11:54:51.126Z,5.00
2018-03-20T11:57:27.851Z,6.13
2018-03-20T12:00:06.169Z,8.93
2018-03-20T12:02:43.245Z,4.60
2018-03-20T12:05:20.855Z,8.13
2018-03-20T12:08:02.946Z,8.60
2018-03-20T12:10:41.068Z,5.30
2018-03-20T12:13:17.680Z,2.90
2018-03-20T12:15:53.333Z,6.67
2018-03-20T12:18:31.703Z,5.28
2018-03-20T12:21:09.505Z,3.55
2018-03-20T12:23:48.469Z,8.00
2018-03-20T12:26:27.578Z,6.27
2018-03-20T12:29:08.995Z,3.40
2018-03-20T12:31:46.514Z,4.90
2018-03-20T12:34:24.592Z,6.37
2018-03-20T12:37:01.660Z,3.28
2018-03-20T12:39:38.068Z,4.97
2018-03-20T12:42:18.417Z,7.55
2018-03-20T12:44:55.817Z,6.35
2018-03-20T12:47:31.703Z,6.73
2018-03-20T12:50:08.756Z,6.72
2018-03-20T12:52:49.462Z,12.27
2018-03-20T12:55:28.360Z,9.75
2018-03-20T12:58:10.444Z,10.40
2018-03-20T13:00:45.789Z,9.90
2018-03-20T13:03:23.723Z,5.40
2018-03-20T13:06:01.949Z,6.90
2018-03-20T13:08:40.832Z,9.82
2018-03-20T13:11:17.328Z,13.38
2018-03-20T13:13:56.000Z,10.70
2018-03-20T13:16:33.949Z,8.10
2018-03-20T13:19:11.373Z,7.70
2018-03-20T13:21:48.137Z,3.83
2018-03-20T13:24:30.724Z,5.25
2018-03-20T13:27:08.764Z,7.43
2018-03-20T13:29:46.303Z,3.85
2018-03-20T13:32:23.965Z,5.05
2018-03-20T13:35:03.503Z,7.87
2018-03-20T13:37:39.032Z,4.18
2018-03-20T13:40:13.915Z,5.10
2018-03-20T13:42:50.216Z,6.75
2018-03-20T13:45:26.543Z,6.65
2018-03-20T13:48:03.144Z,3.45
2018-03-20T13:50:38.572Z,3.95
2018-03-20T13:53:30.380Z,5.97
2018-03-20T13:56:07.673Z,4.07
2018-03-20T13:58:43.454Z,4.70
2018-03-20T14:01:20.777Z,4.68
2018-03-20T14:04:00.196Z,4.72
2018-03-20T14:06:35.577Z,3.70
2018-03-20T14:09:11.793Z,4.47
2018-03-20T14:11:50.985Z,3.37
2018-03-20T14:14:28.034Z,5.00
2018-03-20T14:17:05.140Z,5.37
2018-03-20T14:19:44.668Z,7.65
2018-03-20T14:22:25.561Z,5.20
2018-03-20T14:25:03.738Z,6.20
2018-03-20T14:27:40.822Z,5.00
2018-03-20T14:30:22.858Z,11.38
2018-03-20T14:33:00.328Z,5.87
2018-03-20T14:35:37.846Z,4.15
2018-03-20T14:38:23.067Z,8.98
2018-03-20T14:41:00.609Z,5.50
2018-03-20T14:43:38.954Z,6.90
2018-03-20T14:46:15.344Z,5.20
2018-03-20T14:48:52.533Z,7.37
2018-03-20T14:51:31.401Z,7.68
2018-03-20T14:54:12.713Z,3.90
2018-03-20T14:56:49.428Z,2.70
2018-03-20T14:59:21.276Z,4.78
2018-03-20T15:01:58.298Z,3.97
2018-03-20T15:04:34.663Z,12.85
2018-03-20T15:07:10.764Z,4.70
2018-03-20T15:09:46.988Z,5.12
2018-03-20T15:12:25.927Z,4.40
2018-03-20T15:15:05.528Z,3.70
2018-03-20T15:17:44.132Z,4.87
2018-03-20T15:20:22.220Z,3.40
2018-03-20T15:23:03.901Z,3.40
2018-03-20T15:25:42.334Z,11.30
2018-03-20T15:28:19.184Z,4.10
2018-03-20T15:30:56.859Z,3.72
2018-03-20T15:33:34.026Z,4.30
2018-03-20T15:36:10.653Z,4.35
2018-03-20T15:38:47.698Z,4.72
2018-03-20T15:41:26.278Z,4.10
2018-03-20T15:44:05.991Z,4.05
2018-03-20T15:46:42.527Z,4.68
2018-03-20T15:49:18.833Z,7.03
2018-03-20T15:51:56.098Z,3.65
2018-03-20T15:54:32.671Z,4.05
2018-03-20T15:57:08.376Z,4.07
2018-03-20T15:59:50.945Z,4.32
2018-03-20T16:02:30.780Z,4.57
2018-03-20T16:05:07.822Z,6.65
2018-03-20T16:07:44.538Z,3.80
2018-03-20T16:10:19.573Z,4.70
2018-03-20T16:12:58.048Z,1.75
2018-03-20T16:15:34.960Z,4.90
2018-03-20T16:18:13.031Z,4.82
2018-03-20T16:20:53.740Z,3.47
2018-03-20T16:23:30.902Z,4.45
2018-03-20T16:26:10.576Z,5.15
2018-03-20T16:28:48.276Z,3.95
2018-03-20T16:31:30.791Z,4.10
2018-03-20T16:34:08.305Z,3.70
2018-03-20T16:36:47.075Z,3.58
2018-03-20T16:39:24.406Z,4.25
2018-03-20T16:42:01.816Z,4.55
2018-03-20T16:44:38.617Z,3.92
2018-03-20T16:47:15.666Z,5.22
2018-03-20T16:49:58.533Z,10.85
2018-03-20T16:52:35.223Z,8.73
2018-03-20T16:55:11.414Z,4.25
2018-03-20T16:57:50.187Z,3.65
2018-03-20T17:00:27.508Z,4.93
2018-03-20T17:03:09.718Z,10.90
2018-03-20T17:05:49.284Z,5.10
2018-03-20T17:08:26.320Z,5.25
2018-03-20T17:11:05.132Z,4.32
2018-03-20T17:13:44.758Z,5.05
2018-03-20T17:16:21.025Z,8.15
2018-03-20T17:18:57.754Z,4.07
2018-03-20T17:21:35.277Z,4.32
2018-03-20T17:24:19.417Z,3.12
2018-03-20T17:26:57.570Z,4.05
2018-03-20T17:29:34.325Z,4.00
2018-03-20T17:32:14.053Z,5.18
2018-03-20T17:34:50.914Z,4.15
2018-03-20T17:37:34.430Z,4.25
2018-03-20T17:40:11.213Z,3.00
2018-03-20T17:42:48.809Z,5.43
2018-03-20T17:45:24.555Z,5.53
2018-03-20T17:48:02.533Z,5.53
2018-03-20T17:50:40.200Z,4.78
2018-03-20T17:53:17.491Z,5.18
2018-03-20T17:56:00.924Z,4.20
2018-03-20T17:58:37.030Z,3.60
2018-03-20T18:01:15.133Z,7.70
2018-03-20T18:03:53.272Z,4.47
2018-03-20T18:06:31.458Z,4.40
2018-03-20T18:09:09.149Z,3.92
2018-03-20T18:11:46.116Z,6.65
2018-03-20T18:14:22.714Z,2.90
2018-03-20T18:17:02.625Z,4.18
2018-03-20T18:19:40.979Z,4.87
2018-03-20T18:22:17.923Z,4.57
2018-03-20T18:24:54.006Z,4.50
2018-03-20T18:27:35.696Z,3.40
2018-03-20T18:30:13.272Z,5.90
2018-03-20T18:32:48.952Z,4.47
2018-03-20T18:35:19.092Z,4.80
2018-03-20T18:37:55.085Z,5.37
2018-03-20T18:40:33.991Z,4.78
2018-03-20T18:43:11.491Z,7.07
2018-03-20T18:45:47.366Z,5.82
2018-03-20T18:48:23.956Z,5.20
2018-03-20T18:51:08.238Z,5.32
2018-03-20T18:53:46.856Z,5.00
2018-03-20T18:56:23.155Z,3.75
2018-03-20T18:58:58.772Z,6.97
2018-03-20T19:01:35.755Z,4.90
2018-03-20T19:04:15.009Z,10.68
2018-03-20T19:06:50.548Z,4.12
2018-03-20T19:09:26.479Z,4.95
2018-03-20T19:12:03.891Z,4.65
2018-03-20T19:14:41.536Z,3.62
2018-03-20T19:17:23.525Z,7.65
2018-03-20T19:20:01.402Z,4.95
2018-03-20T19:22:43.638Z,5.82
2018-03-20T19:25:21.694Z,4.90
2018-03-20T19:27:57.760Z,4.45
2018-03-20T19:30:34.794Z,5.85
2018-03-20T19:33:10.181Z,3.97
2018-03-20T19:35:47.675Z,6.78
2018-03-20T19:38:27.040Z,5.75
2018-03-20T19:41:02.646Z,4.47
2018-03-20T19:43:39.940Z,5.35
2018-03-20T19:46:17.485Z,4.87
2018-03-20T19:48:55.033Z,3.97
2018-03-20T19:51:31.643Z,4.68
2018-03-20T19:54:08.756Z,4.90
2018-03-20T19:56:44.799Z,5.28
2018-03-20T19:59:20.861Z,4.18
2018-03-20T20:01:58.192Z,4.25
2018-03-20T20:04:35.794Z,5.43
2018-03-20T20:07:12.933Z,4.97
2018-03-20T20:09:48.812Z,4.40
2018-03-20T20:12:27.301Z,5.05
2018-03-20T20:15:06.100Z,6.25
2018-03-20T20:17:42.072Z,4.55
2018-03-20T20:20:20.930Z,5.00
2018-03-20T20:23:01.108Z,6.18
2018-03-20T20:25:38.360Z,5.22
2018-03-20T20:28:20.807Z,6.70
2018-03-20T20:30:56.887Z,5.20
2018-03-20T20:33:33.851Z,10.13
2018-03-20T20:36:11.002Z,4.85
2018-03-20T20:38:45.590Z,6.53
2018-03-20T20:41:23.354Z,5.62
2018-03-20T20:44:00.349Z,4.95
2018-03-20T20:46:37.595Z,5.05
2018-03-20T20:49:15.618Z,5.35
2018-03-20T20:51:51.091Z,5.35
2018-03-20T20:54:30.658Z,4.45
2018-03-20T20:57:07.136Z,4.78
2018-03-20T20:59:36.720Z,4.80
2018-03-20T21:02:14.387Z,5.30
2018-03-20T21:04:51.116Z,4.97
2018-03-20T21:07:28.201Z,4.20
2018-03-20T21:10:04.898Z,7.97
2018-03-20T21:12:40.875Z,4.70
2018-03-20T21:15:17.812Z,5.50
2018-03-20T21:17:54.793Z,5.68
2018-03-20T21:20:30.412Z,4.68
2018-03-20T21:23:09.540Z,4.53
2018-03-20T21:25:45.244Z,4.93
2018-03-20T21:28:23.218Z,6.35
2018-03-20T21:30:58.516Z,5.20
2018-03-20T21:33:36.396Z,6.03
2018-03-20T21:36:17.734Z,5.82
2018-03-20T21:38:53.474Z,5.05
2018-03-20T21:41:30.419Z,10.10
2018-03-20T21:44:09.062Z,6.80
2018-03-20T21:46:45.646Z,4.40
2018-03-20T21:49:22.380Z,5.82
2018-03-20T21:51:59.251Z,6.00
2018-03-20T21:54:41.113Z,5.78
2018-03-20T21:57:23.009Z,5.47
2018-03-20T21:59:58.791Z,7.10
2018-03-20T22:02:35.434Z,5.43
2018-03-20T22:05:11.536Z,4.95
2018-03-20T22:07:47.853Z,8.30
2018-03-20T22:10:23.543Z,6.00
2018-03-20T22:13:00.423Z,5.43
2018-03-20T22:15:36.718Z,6.03
2018-03-20T22:18:14.260Z,4.75
2018-03-20T22:20:50.840Z,5.85
2018-03-20T22:23:26.036Z,5.55
2018-03-20T22:26:02.943Z,6.35
2018-03-20T22:28:41.046Z,8.68
2018-03-20T22:31:17.324Z,6.62
2018-03-20T22:33:54.311Z,8.43
2018-03-20T22:36:29.788Z,4.50
2018-03-20T22:39:06.959Z,6.30
2018-03-20T22:41:42.480Z,7.87
2018-03-20T22:44:20.788Z,5.32
2018-03-20T22:46:57.121Z,5.20
2018-03-20T22:49:32.167Z,6.55
2018-03-20T22:52:09.156Z,5.62
2018-03-20T22:54:44.390Z,5.40
2018-03-20T22:57:20.858Z,5.80
2018-03-20T22:59:57.128Z,4.50
2018-03-20T23:02:35.679Z,5.28
2018-03-20T23:05:06.091Z,4.50
2018-03-20T23:07:41.809Z,7.95
2018-03-20T23:10:17.060Z,5.37
2018-03-20T23:12:53.325Z,6.22
2018-03-20T23:15:35.229Z,7.12
2018-03-20T23:18:10.447Z,10.98
2018-03-20T23:20:47.223Z,8.75
2018-03-20T23:23:24.714Z,7.97
2018-03-20T23:26:01.824Z,8.57
2018-03-20T23:28:38.803Z,5.68
2018-03-20T23:31:16.124Z,6.72
2018-03-20T23:33:52.683Z,7.65
2018-03-20T23:36:28.010Z,6.72
2018-03-20T23:39:03.987Z,6.37
2018-03-20T23:41:41.000Z,6.85
2018-03-20T23:44:17.568Z,5.87
2018-03-20T23:46:54.154Z,5.97
2018-03-20T23:49:30.686Z,5.97
2018-03-20T23:52:00.832Z,7.90
2018-03-20T23:54:36.206Z,6.35
2018-03-20T23:57:06.634Z,8.00
2018-03-20T23:59:39.399Z,6.15
